Time;durP1;ratioP1;P1;durP2;ratioP2;P2;SDS_P1;SDS_P2;PMS_P1;PMS_P2;Temp;Humidity;BMP_temperature;BMP_pressure;BME280_temperature;BME280_humidity;BME280_pressure;Samples;Min_cycle;Max_cycle;Signal;HPM_P1;HPM_P2
2021/11/08 00:00:30;;;;;;;17.83;3.80;;;;;;;5.39;100.00;101841.94;2089387;28;20421;-66
2021/11/08 00:01:31;;;;;;;15.63;4.38;;;;;;;5.37;100.00;101847.13;2089456;28;20524;-65
2021/11/08 00:02:33;;;;;;;18.73;4.78;;;;;;;5.35;100.00;101846.28;2090094;28;20033;-66
2021/11/08 00:03:36;;;;;;;17.58;4.95;;;;;;;5.31;100.00;101849.75;2090043;28;20557;-65
2021/11/08 00:04:36;;;;;;;18.48;5.20;;;;;;;5.30;100.00;101837.66;2090049;28;20486;-66
2021/11/08 00:05:41;;;;;;;15.75;4.82;;;;;;;5.32;100.00;101841.13;2089998;28;20035;-66
2021/11/08 00:06:42;;;;;;;13.25;4.53;;;;;;;5.31;100.00;101839.41;2089986;28;20017;-65
2021/11/08 00:07:44;;;;;;;19.80;4.65;;;;;;;5.32;100.00;101835.06;2090042;28;20488;-66
2021/11/08 00:08:45;;;;;;;12.75;4.97;;;;;;;5.31;100.00;101844.59;2090004;28;20024;-66
2021/11/08 00:09:46;;;;;;;18.40;4.43;;;;;;;5.31;100.00;101843.72;2089861;28;20036;-66
2021/11/08 00:10:47;;;;;;;18.00;4.40;;;;;;;5.30;100.00;101835.09;2090032;28;20021;-66
2021/11/08 00:11:47;;;;;;;18.25;5.07;;;;;;;5.32;100.00;101840.25;2090058;28;20053;-65
2021/11/08 00:12:47;;;;;;;22.07;5.03;;;;;;;5.35;100.00;101840.25;2089389;28;20452;-66
2021/11/08 00:13:48;;;;;;;15.67;5.23;;;;;;;5.34;100.00;101839.38;2089423;28;20343;-66
2021/11/08 00:14:54;;;;;;;12.77;4.87;;;;;;;5.35;100.00;101838.53;2089969;28;20032;-65
2021/11/08 00:17:51;;;;;;;19.05;4.35;;;;;;;5.35;100.00;101841.13;2089582;28;20463;-65
2021/11/08 00:21:00;;;;;;;23.33;5.50;;;;;;;5.36;100.00;101844.53;2090129;28;20033;-66
2021/11/08 00:22:02;;;;;;;18.20;5.10;;;;;;;5.35;100.00;101842.84;2089926;28;20169;-66
2021/11/08 00:23:08;;;;;;;15.05;4.30;;;;;;;5.33;100.00;101844.59;2089873;28;20406;-66
2021/11/08 00:24:10;;;;;;;13.57;5.32;;;;;;;5.30;100.00;101848.03;2089997;28;20025;-65
2021/11/08 00:25:11;;;;;;;18.25;4.93;;;;;;;5.30;100.00;101836.81;2089285;28;20472;-65
2021/11/08 00:26:12;;;;;;;18.58;5.15;;;;;;;5.26;100.00;101844.59;2089360;28;20063;-65
2021/11/08 00:27:12;;;;;;;19.38;5.07;;;;;;;5.25;100.00;101844.59;2089951;28;20029;-65
2021/11/08 00:28:15;;;;;;;17.90;5.97;;;;;;;5.22;100.00;101844.59;2090000;28;20394;-66
2021/11/08 00:29:15;;;;;;;14.38;5.10;;;;;;;5.20;100.00;101847.19;2089757;28;20025;-65
2021/11/08 00:30:16;;;;;;;18.20;5.00;;;;;;;5.18;100.00;101842.91;2089971;28;20504;-66
2021/11/08 00:31:16;;;;;;;14.20;4.20;;;;;;;5.14;100.00;101850.66;2089335;28;20024;-66
2021/11/08 00:32:16;;;;;;;12.53;4.50;;;;;;;5.12;100.00;101844.66;2089346;28;20048;-66
2021/11/08 00:33:18;;;;;;;16.00;4.83;;;;;;;5.11;100.00;101844.66;2090003;28;20492;-66
2021/11/08 00:34:19;;;;;;;17.20;4.88;;;;;;;5.07;100.00;101843.81;2089877;28;20056;-66
2021/11/08 00:35:19;;;;;;;15.07;4.57;;;;;;;5.04;100.00;101843.81;2089379;28;20035;-66
2021/11/08 00:36:20;;;;;;;23.37;5.33;;;;;;;5.01;100.00;101843.81;2089244;28;20455;-66
2021/11/08 00:37:20;;;;;;;12.77;5.20;;;;;;;4.99;100.00;101843.81;2089253;28;20283;-65
2021/11/08 00:38:21;;;;;;;17.10;5.00;;;;;;;4.95;100.00;101838.66;2089342;28;20684;-65
2021/11/08 00:39:23;;;;;;;15.27;4.65;;;;;;;4.93;100.00;101843.81;2089917;28;20029;-66
2021/11/08 00:40:23;;;;;;;17.60;5.35;;;;;;;4.90;100.00;101842.13;2089912;28;20063;-65
2021/11/08 00:41:23;;;;;;;12.30;4.60;;;;;;;4.89;100.00;101852.47;2089265;28;20040;-65
2021/11/08 00:42:28;;;;;;;14.53;5.23;;;;;;;4.87;100.00;101849.91;2089345;28;20033;-65
2021/11/08 00:43:29;;;;;;;21.73;5.65;;;;;;;4.88;100.00;101841.28;2089903;28;20505;-65
2021/11/08 00:44:29;;;;;;;17.48;4.90;;;;;;;4.89;100.00;101847.28;2089231;28;20124;-65
2021/11/08 00:45:30;;;;;;;21.20;5.78;;;;;;;4.90;100.00;101846.44;2089336;28;20104;-65
2021/11/08 00:46:30;;;;;;;22.03;5.93;;;;;;;4.89;100.00;101847.28;2089913;28;20025;-65
2021/11/08 00:47:31;;;;;;;16.70;5.07;;;;;;;4.87;100.00;101844.72;2089895;28;20031;-65
2021/11/08 00:48:35;;;;;;;18.25;5.32;;;;;;;4.89;100.00;101847.28;2089231;28;20320;-65
2021/11/08 00:49:38;;;;;;;17.67;5.45;;;;;;;4.93;100.00;101848.16;2089167;28;20021;-66
2021/11/08 00:50:38;;;;;;;18.40;5.38;;;;;;;4.92;100.00;101843.84;2089947;28;20024;-66
2021/11/08 00:51:43;;;;;;;16.97;6.03;;;;;;;4.89;100.00;101848.16;2089923;28;20052;-66
2021/11/08 00:52:43;;;;;;;21.88;6.30;;;;;;;4.89;100.00;101848.16;2089877;28;20049;-66
2021/11/08 00:53:45;;;;;;;17.67;5.65;;;;;;;4.89;100.00;101848.16;2089898;28;20363;-66
2021/11/08 00:54:45;;;;;;;;;;;;;;;4.88;100.00;101850.75;2090600;28;20021;-65
2021/11/08 00:55:47;;;;;;;17.88;4.85;;;;;;;4.86;100.00;101843.00;2091544;28;20399;-65
2021/11/08 00:56:51;;;;;;;18.83;5.55;;;;;;;4.83;100.00;101850.75;2090640;28;20036;-65
2021/11/08 00:57:54;;;;;;;17.02;5.97;;;;;;;4.81;100.00;101846.44;2082842;28;20048;-65
2021/11/08 00:58:54;;;;;;;19.40;6.65;;;;;;;4.77;100.00;101848.19;2090655;28;20017;-65
2021/11/08 00:59:55;;;;;;;18.33;6.27;;;;;;;4.77;100.00;101850.78;2091306;28;20020;-66
2021/11/08 01:00:58;;;;;;;20.33;5.40;;;;;;;4.74;100.00;101848.19;2090634;28;20029;-65
2021/11/08 01:01:58;;;;;;;20.60;5.40;;;;;;;4.74;100.00;101854.25;2090720;28;20490;-64
2021/11/08 01:03:02;;;;;;;21.53;5.93;;;;;;;4.76;100.00;101859.41;2091324;28;20111;-64
2021/11/08 01:04:03;;;;;;;24.02;5.43;;;;;;;4.77;100.00;101861.13;2091175;28;20037;-66
2021/11/08 01:05:05;;;;;;;16.63;5.87;;;;;;;4.78;100.00;101859.41;2091269;28;20024;-64
2021/11/08 01:06:06;;;;;;;19.92;5.93;;;;;;;4.80;100.00;101857.66;2090604;28;20309;-65
2021/11/08 01:07:08;;;;;;;20.35;6.38;;;;;;;4.84;100.00;101860.25;2090686;28;20525;-65
2021/11/08 01:08:09;;;;;;;22.58;6.50;;;;;;;4.87;100.00;101864.56;2091250;28;20047;-65
2021/11/08 01:09:09;;;;;;;17.08;5.78;;;;;;;4.88;100.00;101861.09;2091196;28;20362;-65
2021/11/08 01:10:12;;;;;;;24.40;7.50;;;;;;;4.89;100.00;101863.69;2091205;28;20040;-65
2021/11/08 01:11:13;;;;;;;19.02;5.63;;;;;;;4.90;100.00;101865.41;2091138;28;20025;-65
2021/11/08 01:12:14;;;;;;;25.35;7.05;;;;;;;4.92;100.00;101867.16;2091154;28;20035;-64
2021/11/08 01:13:14;;;;;;;18.45;6.57;;;;;;;4.92;100.00;101867.16;2091194;28;20100;-65
2021/11/08 01:14:17;;;;;;;16.10;6.80;;;;;;;4.92;100.00;101861.97;2090502;28;20055;-66
2021/11/08 01:15:17;;;;;;;22.75;6.07;;;;;;;4.88;100.00;101858.50;2082441;28;20070;-65
2021/11/08 01:16:21;;;;;;;14.75;6.38;;;;;;;4.87;100.00;101865.44;2090564;28;20103;-65
2021/11/08 01:17:21;;;;;;;22.50;5.75;;;;;;;4.86;100.00;101868.84;2091105;28;20032;-65
2021/11/08 01:18:22;;;;;;;17.88;5.80;;;;;;;4.84;100.00;101865.44;2091131;28;20025;-65
2021/11/08 01:19:27;;;;;;;15.02;5.65;;;;;;;4.85;100.00;101866.28;2091150;28;20060;-65
2021/11/08 01:20:33;;;;;;;22.73;7.32;;;;;;;4.81;100.00;101865.44;2091211;28;20454;-65
2021/11/08 01:21:35;;;;;;;20.67;6.38;;;;;;;4.81;100.00;101865.44;2091133;28;20079;-65
2021/11/08 01:22:37;;;;;;;16.50;6.05;;;;;;;4.80;100.00;101863.72;2090900;28;20028;-65
2021/11/08 01:23:37;;;;;;;20.08;6.60;;;;;;;4.80;100.00;101861.13;2091050;28;20036;-65
2021/11/08 01:24:38;;;;;;;18.27;7.20;;;;;;;4.78;100.00;101865.44;2091156;28;20029;-65
2021/11/08 01:25:39;;;;;;;25.38;8.38;;;;;;;4.75;100.00;101866.28;2091103;28;20016;-65
2021/11/08 01:26:40;;;;;;;21.65;6.85;;;;;;;4.72;100.00;101860.28;2091049;28;20114;-66
2021/11/08 01:27:43;;;;;;;18.00;6.77;;;;;;;4.69;100.00;101861.13;2091073;28;20043;-65
2021/11/08 01:28:48;;;;;;;26.40;6.43;;;;;;;4.69;100.00;101868.03;2091032;28;20024;-65
2021/11/08 01:29:48;;;;;;;22.48;6.35;;;;;;;4.64;100.00;101870.63;2090963;28;20029;-65
2021/11/08 01:30:48;;;;;;;19.97;5.93;;;;;;;4.62;100.00;101875.78;2090397;28;20112;-65
2021/11/08 01:31:49;;;;;;;15.37;6.37;;;;;;;4.60;100.00;101867.19;2090551;28;20082;-65
2021/11/08 01:33:03;;;;;;;21.25;7.45;;;;;;;4.60;100.00;101862.00;2090311;28;20013;-65
2021/11/08 01:34:04;;;;;;;19.42;6.28;;;;;;;4.63;100.00;101872.34;2090583;28;20029;-65
2021/11/08 01:35:05;;;;;;;17.17;6.97;;;;;;;4.66;100.00;101870.63;2091040;28;20048;-64
2021/11/08 01:37:06;;;;;;;19.48;6.60;;;;;;;4.65;100.00;101874.91;2090532;28;20155;-66
2021/11/08 01:38:21;;;;;;;18.45;6.85;;;;;;;4.66;100.00;101876.66;2091004;28;20078;-66
2021/11/08 01:39:31;;;;;;;16.15;6.78;;;;;;;4.69;100.00;101875.78;2091059;28;20024;-66
2021/11/08 01:40:32;;;;;;;19.73;6.00;;;;;;;4.69;100.00;101871.47;2090955;28;20071;-65
2021/11/08 01:41:33;;;;;;;20.05;5.93;;;;;;;4.72;100.00;101870.63;2090999;28;20506;-65
2021/11/08 01:42:34;;;;;;;15.38;5.90;;;;;;;4.76;100.00;101872.34;2090987;28;20029;-65
2021/11/08 01:43:35;;;;;;;17.58;6.32;;;;;;;4.82;100.00;101872.31;2091012;28;20497;-65
2021/11/08 01:44:36;;;;;;;;;;;;;;;4.87;100.00;101872.31;2091363;28;20363;-65
2021/11/08 01:45:37;;;;;;;12.65;5.78;;;;;;;4.89;100.00;101868.84;2090904;28;19939;-66
2021/11/08 01:46:37;;;;;;;19.45;7.82;;;;;;;4.93;100.00;101864.53;2090933;28;20111;-65
2021/11/08 01:47:38;;;;;;;18.00;6.05;;;;;;;4.97;100.00;101866.28;2090857;28;20421;-64
2021/11/08 01:48:39;;;;;;;22.20;7.23;;;;;;;5.02;100.00;101868.81;2090963;28;20044;-64
2021/11/08 01:49:40;;;;;;;21.70;7.10;;;;;;;5.06;100.00;101857.59;2090813;28;20064;-66
2021/11/08 01:50:41;;;;;;;20.30;7.30;;;;;;;5.09;100.00;101854.13;2090950;28;20021;-66
2021/11/08 01:51:42;;;;;;;16.70;6.40;;;;;;;5.12;100.00;101857.59;2090915;28;20031;-66
2021/11/08 01:52:42;;;;;;;23.95;6.70;;;;;;;5.14;100.00;101857.59;2090866;28;20021;-64
2021/11/08 01:53:44;;;;;;;24.20;7.15;;;;;;;5.17;100.00;101852.41;2090874;28;20074;-65
2021/11/08 01:54:44;;;;;;;;;;;;;;;5.18;100.00;101853.25;2090598;28;20056;-65
2021/11/08 01:55:44;;;;;;;18.17;6.27;;;;;;;5.18;100.00;101855.84;2090367;28;19909;-65
2021/11/08 01:56:46;;;;;;;16.30;7.17;;;;;;;5.20;100.00;101859.28;2090901;28;20289;-66
2021/11/08 01:57:46;;;;;;;;;;;;;;;5.22;100.00;101861.00;2091257;28;20025;-65
2021/11/08 01:58:47;;;;;;;20.30;6.32;;;;;;;5.23;100.00;101857.53;2090812;28;19908;-66
2021/11/08 01:59:47;;;;;;;17.93;6.40;;;;;;;5.27;100.00;101854.06;2090772;28;20013;-65
2021/11/08 02:00:49;;;;;;;20.00;6.00;;;;;;;5.31;100.00;101859.25;2090806;28;20640;-65
2021/11/08 02:01:51;;;;;;;26.40;7.22;;;;;;;5.33;100.00;101852.34;2090813;28;20291;-65
2021/11/08 02:02:52;;;;;;;18.73;6.63;;;;;;;5.34;100.00;101859.25;2090746;28;20074;-65
2021/11/08 02:03:52;;;;;;;20.02;6.55;;;;;;;5.34;100.00;101860.09;2090796;28;20131;-65
2021/11/08 02:04:53;;;;;;;23.98;7.05;;;;;;;5.35;100.00;101864.41;2090753;28;20029;-65
2021/11/08 02:05:54;;;;;;;21.33;6.03;;;;;;;5.36;100.00;101867.84;2090503;28;20035;-65
2021/11/08 02:06:54;;;;;;;27.30;7.57;;;;;;;5.39;100.00;101868.72;2090789;28;20082;-64
2021/11/08 02:07:54;;;;;;;22.30;7.00;;;;;;;5.42;100.00;101862.66;2090759;28;20016;-65
2021/11/08 02:08:55;;;;;;;18.87;6.43;;;;;;;5.43;100.00;101861.78;2090093;28;20045;-65
2021/11/08 02:09:56;;;;;;;24.47;7.10;;;;;;;5.45;100.00;101866.94;2090102;28;20029;-65
2021/11/08 02:10:56;;;;;;;23.52;8.20;;;;;;;5.47;100.00;101865.22;2090764;28;20550;-65
2021/11/08 02:11:56;;;;;;;20.23;6.33;;;;;;;5.49;100.00;101866.06;2090653;28;20422;-65
2021/11/08 02:12:57;;;;;;;23.70;7.80;;;;;;;5.50;100.00;101862.59;2090797;28;20385;-65
2021/11/08 02:13:57;;;;;;;23.20;6.47;;;;;;;5.51;100.00;101859.16;2090774;28;20028;-65
2021/11/08 02:14:57;;;;;;;18.43;6.53;;;;;;;5.52;100.00;101866.06;2090764;28;20023;-66
2021/11/08 02:15:58;;;;;;;20.10;7.40;;;;;;;5.51;100.00;101867.78;2090671;28;20036;-65
2021/11/08 02:16:58;;;;;;;24.98;8.02;;;;;;;5.51;100.00;101872.13;2090076;28;20025;-66
2021/11/08 02:17:59;;;;;;;22.80;7.67;;;;;;;5.52;100.00;101868.66;2090119;28;20090;-65
2021/11/08 02:19:00;;;;;;;18.23;6.87;;;;;;;5.52;100.00;101863.47;2090699;28;20466;-65
2021/11/08 02:20:15;;;;;;;23.35;7.70;;;;;;;5.50;100.00;101865.19;2090607;28;20025;-65
2021/11/08 02:21:15;;;;;;;20.80;7.03;;;;;;;5.47;100.00;101868.66;2090709;28;20543;-66
2021/11/08 02:22:15;;;;;;;22.10;6.77;;;;;;;5.46;100.00;101863.50;2090002;28;20044;-66
2021/11/08 02:23:18;;;;;;;23.30;6.50;;;;;;;5.41;100.00;101866.97;2081455;28;20049;-65
2021/11/08 02:24:21;;;;;;;23.85;7.85;;;;;;;5.41;100.00;101866.97;2090106;28;20036;-66
2021/11/08 02:25:22;;;;;;;17.00;6.15;;;;;;;5.36;100.00;101860.94;2090689;28;20039;-65
2021/11/08 02:26:23;;;;;;;15.75;6.63;;;;;;;5.35;100.00;101861.81;2089916;28;20020;-65
2021/11/08 02:27:23;;;;;;;20.63;6.07;;;;;;;5.34;100.00;101865.25;2089966;28;20032;-65
2021/11/08 02:28:24;;;;;;;22.35;6.45;;;;;;;5.31;100.00;101860.13;2089996;28;20041;-66
2021/11/08 02:29:24;;;;;;;23.55;7.28;;;;;;;5.29;100.00;101861.84;2090574;28;20103;-64
2021/11/08 02:30:28;;;;;;;21.03;6.23;;;;;;;5.27;100.00;101868.78;2090660;28;20389;-65
2021/11/08 02:31:30;;;;;;;19.35;6.22;;;;;;;5.24;100.00;101861.84;2090607;28;20025;-65
2021/11/08 02:32:31;;;;;;;23.85;7.53;;;;;;;5.21;100.00;101859.28;2090504;28;20508;-65
2021/11/08 02:33:31;;;;;;;16.52;6.45;;;;;;;5.19;100.00;101865.31;2089965;28;20017;-66
2021/11/08 02:34:31;;;;;;;25.70;7.17;;;;;;;5.19;100.00;101873.94;2081576;28;20434;-65
2021/11/08 02:35:31;;;;;;;20.13;6.67;;;;;;;5.18;100.00;101866.19;2089885;28;20025;-65
2021/11/08 02:36:32;;;;;;;22.63;7.70;;;;;;;5.15;100.00;101867.94;2090571;28;20021;-64
2021/11/08 02:37:32;;;;;;;19.97;6.73;;;;;;;5.15;100.00;101870.53;2090527;28;20025;-65
2021/11/08 02:38:37;;;;;;;21.23;7.32;;;;;;;5.15;100.00;101870.53;2090538;28;20017;-65
2021/11/08 02:39:39;;;;;;;18.10;6.22;;;;;;;5.15;100.00;101869.66;2090500;28;20021;-65
2021/11/08 02:40:40;;;;;;;18.42;6.70;;;;;;;5.17;100.00;101872.25;2089808;28;20051;-64
2021/11/08 02:41:41;;;;;;;22.35;7.45;;;;;;;5.20;100.00;101872.25;2089947;28;20104;-65
2021/11/08 02:42:41;;;;;;;25.83;6.13;;;;;;;5.20;100.00;101880.84;2090487;28;20017;-66
2021/11/08 02:43:44;;;;;;;24.00;6.88;;;;;;;5.20;100.00;101878.25;2090550;28;20025;-65
2021/11/08 02:44:44;;;;;;;16.42;6.72;;;;;;;5.20;100.00;101880.00;2089819;28;20043;-65
2021/11/08 02:45:45;;;;;;;14.30;5.83;;;;;;;5.21;100.00;101879.13;2081607;28;20029;-65
2021/11/08 02:46:46;;;;;;;23.80;6.97;;;;;;;5.21;100.00;101879.13;2081499;28;20490;-65
2021/11/08 02:47:47;;;;;;;16.10;5.97;;;;;;;5.21;100.00;101869.66;2089752;28;20025;-66
2021/11/08 02:48:51;;;;;;;25.50;7.68;;;;;;;5.26;100.00;101879.97;2090519;28;20025;-65
2021/11/08 02:49:54;;;;;;;16.25;6.85;;;;;;;5.26;100.00;101873.06;2090331;28;20531;-65
2021/11/08 02:51:07;;;;;;;24.42;7.00;;;;;;;5.26;100.00;101872.19;2090443;28;20025;-67
2021/11/08 02:52:09;;;;;;;17.15;6.20;;;;;;;5.28;100.00;101880.84;2089678;28;20099;-65
2021/11/08 02:53:14;;;;;;;12.20;6.55;;;;;;;5.26;100.00;101873.06;2089828;28;20029;-65
2021/11/08 02:54:26;;;;;;;17.88;6.75;;;;;;;5.28;100.00;101875.66;2089702;28;20071;-65
2021/11/08 02:55:28;;;;;;;14.85;6.13;;;;;;;5.29;100.00;101874.78;2083099;28;20421;-65
2021/11/08 02:56:28;;;;;;;16.70;6.60;;;;;;;5.30;100.00;101867.88;2089704;28;20033;-65
2021/11/08 02:57:29;;;;;;;15.10;6.10;;;;;;;5.31;100.00;101879.97;2089834;28;20063;-64
2021/11/08 02:58:29;;;;;;;24.70;7.47;;;;;;;5.29;100.00;101874.78;2090625;28;20493;-65
2021/11/08 02:59:31;;;;;;;21.37;6.50;;;;;;;5.24;100.00;101873.94;2090417;28;20448;-65
2021/11/08 03:00:32;;;;;;;22.63;6.30;;;;;;;5.21;100.00;101876.53;2089619;28;20029;-65
2021/11/08 03:01:33;;;;;;;20.25;6.80;;;;;;;5.18;100.00;101873.94;2089784;28;20037;-65
2021/11/08 03:02:36;;;;;;;21.98;6.55;;;;;;;5.13;100.00;101873.97;2090355;28;20017;-65
2021/11/08 03:03:41;;;;;;;13.68;5.75;;;;;;;5.07;100.00;101867.09;2090286;28;20028;-65
2021/11/08 03:04:44;;;;;;;23.38;6.38;;;;;;;5.05;100.00;101862.78;2090354;28;20017;-65
2021/11/08 03:05:45;;;;;;;20.60;6.53;;;;;;;5.01;100.00;101869.69;2090337;28;20013;-65
2021/11/08 03:06:45;;;;;;;22.37;5.47;;;;;;;4.97;100.00;101866.28;2090361;28;20021;-66
2021/11/08 03:07:46;;;;;;;20.80;6.73;;;;;;;4.93;100.00;101874.03;2090393;28;20444;-65
2021/11/08 03:08:47;;;;;;;;;;;;;;;4.88;100.00;101872.31;2090789;28;20063;-65
2021/11/08 03:09:56;;;;;;;19.55;5.13;;;;;;;4.83;100.00;101865.44;2092996;28;19917;-65
2021/11/08 03:10:57;;;;;;;15.18;5.07;;;;;;;4.82;100.00;101863.72;2090326;28;20116;-65
2021/11/08 03:11:59;;;;;;;19.35;6.18;;;;;;;4.82;100.00;101869.72;2089573;28;20074;-64
2021/11/08 03:13:07;;;;;;;23.02;6.65;;;;;;;4.79;100.00;101867.13;2089721;28;20095;-67
2021/11/08 03:14:11;;;;;;;23.10;7.78;;;;;;;4.75;100.00;101868.00;2090271;28;20490;-65
2021/11/08 03:15:14;;;;;;;18.98;6.05;;;;;;;4.74;100.00;101874.06;2089617;28;20379;-65
2021/11/08 03:16:24;;;;;;;21.65;6.28;;;;;;;4.69;100.00;101870.63;2089682;28;20075;-65
2021/11/08 03:17:30;;;;;;;22.35;6.00;;;;;;;4.66;100.00;101873.22;2089787;28;20501;-65
2021/11/08 03:18:39;;;;;;;19.95;6.20;;;;;;;4.61;100.00;101874.06;2090161;28;20543;-66
2021/11/08 03:19:42;;;;;;;16.85;6.05;;;;;;;4.59;100.00;101880.94;2090276;28;20036;-66
2021/11/08 03:20:42;;;;;;;16.77;5.88;;;;;;;4.57;100.00;101877.53;2089624;28;20071;-66
2021/11/08 03:21:45;;;;;;;20.83;5.67;;;;;;;4.55;100.00;101881.81;2089624;28;20467;-66
2021/11/08 03:22:50;;;;;;;19.23;6.32;;;;;;;4.53;100.00;101880.97;2090119;28;20044;-65
2021/11/08 03:23:54;;;;;;;23.70;6.28;;;;;;;4.49;100.00;101879.25;2090386;28;20027;-65
2021/11/08 03:24:59;;;;;;;17.27;6.07;;;;;;;4.47;100.00;101880.97;2089475;28;20041;-65
2021/11/08 03:27:28;;;;;;;19.80;5.80;;;;;;;4.46;100.00;101879.25;2090345;28;20040;-65
2021/11/08 03:28:28;;;;;;;22.80;5.97;;;;;;;4.46;100.00;101885.28;2090191;28;20486;-65
2021/11/08 03:29:29;;;;;;;18.07;5.53;;;;;;;4.48;100.00;101883.56;2090164;28;20079;-65
2021/11/08 03:30:43;;;;;;;15.63;5.53;;;;;;;4.50;100.00;101891.31;2090235;28;20505;-65
2021/11/08 03:31:48;;;;;;;17.17;5.78;;;;;;;4.48;100.00;101882.72;2090159;28;20017;-65
2021/11/08 03:32:51;;;;;;;17.23;5.85;;;;;;;4.46;100.00;101880.13;2090315;28;20017;-65
2021/11/08 03:33:52;;;;;;;19.40;5.38;;;;;;;4.45;100.00;101887.88;2089490;28;20016;-65
2021/11/08 03:35:03;;;;;;;15.10;5.68;;;;;;;4.46;100.00;101884.41;2089571;28;20021;-65
2021/11/08 03:36:06;;;;;;;16.85;5.35;;;;;;;4.49;100.00;101894.75;2090152;28;20418;-66
2021/11/08 03:37:06;;;;;;;24.30;7.18;;;;;;;4.51;100.00;101893.03;2090060;28;20025;-66
2021/11/08 03:38:08;;;;;;;19.80;6.50;;;;;;;4.51;100.00;101887.84;2090220;28;20513;-65
2021/11/08 03:39:09;;;;;;;21.13;6.57;;;;;;;4.55;100.00;101891.31;2090080;28;20656;-66
2021/11/08 03:40:15;;;;;;;16.33;6.20;;;;;;;4.55;100.00;101879.22;2090115;28;20025;-66
2021/11/08 03:41:15;;;;;;;20.70;6.18;;;;;;;4.56;100.00;101883.56;2090078;28;20017;-66
2021/11/08 03:42:16;;;;;;;24.97;7.23;;;;;;;4.56;100.00;101886.16;2090170;28;20063;-67
2021/11/08 03:43:20;;;;;;;16.80;6.05;;;;;;;4.55;100.00;101884.41;2090137;28;20341;-66
2021/11/08 03:44:20;;;;;;;20.70;6.30;;;;;;;4.54;100.00;101880.09;2089379;28;20021;-66
2021/11/08 03:45:23;;;;;;;18.23;6.57;;;;;;;4.57;100.00;101882.69;2089498;28;20132;-66
2021/11/08 03:46:24;;;;;;;19.42;5.97;;;;;;;4.59;100.00;101886.13;2089533;28;20399;-66
2021/11/08 03:47:25;;;;;;;19.48;6.38;;;;;;;4.62;100.00;101891.31;2089484;28;20040;-65
2021/11/08 03:48:25;;;;;;;27.98;6.93;;;;;;;4.64;100.00;101884.41;2089455;28;20077;-65
2021/11/08 03:49:26;;;;;;;15.50;6.43;;;;;;;4.68;100.00;101884.41;2089474;28;20448;-65
2021/11/08 03:50:27;;;;;;;16.13;5.50;;;;;;;4.69;100.00;101893.91;2090130;28;20474;-65
2021/11/08 03:51:27;;;;;;;19.25;6.35;;;;;;;4.69;100.00;101888.72;2090174;28;20044;-65
2021/11/08 03:52:28;;;;;;;25.83;7.77;;;;;;;4.71;100.00;101889.56;2089420;28;20431;-65
2021/11/08 03:53:29;;;;;;;16.55;6.47;;;;;;;4.71;100.00;101894.75;2089509;28;20047;-64
2021/11/08 03:54:29;;;;;;;16.97;6.40;;;;;;;4.68;100.00;101890.44;2081129;28;20025;-65
2021/11/08 03:55:30;;;;;;;18.15;5.93;;;;;;;4.67;100.00;101893.91;2089486;28;20286;-64
2021/11/08 03:56:30;;;;;;;19.85;6.40;;;;;;;4.68;100.00;101894.75;2090170;28;20051;-65
2021/11/08 03:57:31;;;;;;;21.77;7.20;;;;;;;4.68;100.00;101894.75;2090128;28;20029;-66
2021/11/08 03:58:31;;;;;;;18.97;7.33;;;;;;;4.67;100.00;101893.03;2090122;28;20366;-66
2021/11/08 03:59:32;;;;;;;17.87;6.53;;;;;;;4.70;100.00;101898.19;2090100;28;20025;-65
2021/11/08 04:00:34;;;;;;;17.45;6.53;;;;;;;4.70;100.00;101898.19;2090055;28;20044;-65
2021/11/08 04:01:35;;;;;;;23.02;7.43;;;;;;;4.70;100.00;101898.19;2089436;28;20033;-65
2021/11/08 04:02:36;;;;;;;19.23;7.47;;;;;;;4.71;100.00;101900.78;2089559;28;20215;-65
2021/11/08 04:03:36;;;;;;;20.10;7.70;;;;;;;4.72;100.00;101909.41;2089398;28;20097;-65
2021/11/08 04:04:37;;;;;;;22.97;7.03;;;;;;;4.73;100.00;101905.97;2089536;28;20020;-65
2021/11/08 04:05:39;;;;;;;19.43;6.97;;;;;;;4.75;100.00;101906.81;2090037;28;20524;-66
2021/11/08 04:06:41;;;;;;;16.70;5.90;;;;;;;4.78;100.00;101905.97;2090070;28;20427;-65
2021/11/08 04:07:42;;;;;;;22.17;7.28;;;;;;;4.78;100.00;101904.22;2090056;28;20489;-64
2021/11/08 04:08:42;;;;;;;;;;;;;;;4.83;100.00;101904.22;2090500;28;20025;-65
2021/11/08 04:09:43;;;;;;;19.10;6.10;;;;;;;4.82;100.00;101898.19;2089997;28;19913;-64
2021/11/08 04:10:47;;;;;;;18.92;5.57;;;;;;;4.82;100.00;101900.75;2089368;28;20462;-65
2021/11/08 04:11:47;;;;;;;24.52;7.20;;;;;;;4.85;100.00;101902.47;2089494;28;20577;-66
2021/11/08 04:12:50;;;;;;;18.47;5.83;;;;;;;4.86;100.00;101902.47;2089978;28;20020;-65
2021/11/08 04:13:51;;;;;;;16.52;6.20;;;;;;;4.86;100.00;101899.91;2089403;28;20059;-66
2021/11/08 04:14:52;;;;;;;;;;;;;;;4.92;100.00;101908.53;2089830;28;20060;-65
2021/11/08 04:15:52;;;;;;;19.30;7.00;;;;;;;4.92;100.00;101908.53;2089403;28;19940;-65
2021/11/08 04:16:53;;;;;;;21.70;6.43;;;;;;;4.93;100.00;101908.50;2089457;28;20452;-66
2021/11/08 04:17:53;;;;;;;21.10;6.53;;;;;;;4.93;100.00;101903.31;2089338;28;20021;-65
2021/11/08 04:18:56;;;;;;;24.40;6.90;;;;;;;4.95;100.00;101918.84;2089420;28;20147;-66
2021/11/08 04:19:57;;;;;;;19.33;6.68;;;;;;;4.96;100.00;101912.84;2090123;28;20470;-65
2021/11/08 04:20:59;;;;;;;17.90;7.43;;;;;;;4.97;100.00;101917.13;2089322;28;20116;-65
2021/11/08 04:22:01;;;;;;;22.70;6.47;;;;;;;4.97;100.00;101911.97;2089391;28;20029;-65
2021/11/08 04:23:02;;;;;;;19.92;6.70;;;;;;;4.98;100.00;101913.69;2089841;28;20499;-65
2021/11/08 04:24:04;;;;;;;;;;;;;;;5.00;100.00;101912.81;2089729;28;20036;-65
2021/11/08 04:25:06;;;;;;;17.65;5.47;;;;;;;5.01;100.00;101916.25;2089295;28;19909;-65
2021/11/08 04:26:07;;;;;;;22.05;6.57;;;;;;;5.01;100.00;101904.19;2090039;28;20098;-66
2021/11/08 04:27:08;;;;;;;17.13;6.88;;;;;;;5.03;100.00;101914.53;2089299;28;20456;-65
2021/11/08 04:28:10;;;;;;;21.92;7.30;;;;;;;5.02;100.00;101905.91;2089476;28;20119;-66
2021/11/08 04:29:10;;;;;;;21.42;7.45;;;;;;;5.03;100.00;101907.63;2090835;28;20102;-64
2021/11/08 04:30:11;;;;;;;16.67;6.93;;;;;;;5.06;100.00;101911.94;2091461;28;20048;-65
2021/11/08 04:31:11;;;;;;;16.80;6.43;;;;;;;5.08;100.00;101904.16;2091604;28;20029;-66
2021/11/08 04:32:12;;;;;;;17.67;6.20;;;;;;;5.09;100.00;101904.16;2091572;28;20028;-66
2021/11/08 04:33:28;;;;;;;15.03;6.17;;;;;;;5.10;100.00;101910.22;2091527;28;20161;-64
2021/11/08 04:34:47;;;;;;;20.77;6.38;;;;;;;5.12;100.00;101911.94;2090818;28;20032;-65
2021/11/08 04:36:01;;;;;;;21.40;7.97;;;;;;;5.13;100.00;101908.47;2091109;28;20456;-65
2021/11/08 04:42:31;;;;;;;19.92;7.05;;;;;;;5.18;100.00;101910.19;2091605;28;20440;-65
2021/11/08 04:43:51;;;;;;;20.70;5.90;;;;;;;5.20;100.00;101905.88;2091438;28;20159;-66
2021/11/08 04:45:16;;;;;;;19.52;6.90;;;;;;;5.21;100.00;101905.00;2091463;28;20029;-66
2021/11/08 04:50:04;;;;;;;28.13;8.23;;;;;;;5.23;100.00;101908.44;2091324;28;20033;-65
2021/11/08 04:53:35;;;;;;;24.85;7.32;;;;;;;5.22;100.00;101909.31;2091471;28;20037;-65
2021/11/08 04:54:50;;;;;;;21.27;6.70;;;;;;;5.22;100.00;101917.06;2090739;28;20021;-65
2021/11/08 04:59:03;;;;;;;19.58;7.93;;;;;;;5.22;100.00;101914.50;2091344;28;20033;-67
2021/11/08 05:22:42;;;;;;;18.05;7.22;;;;;;;5.26;100.00;101926.56;2091263;28;20497;-66
2021/11/08 05:25:00;;;;;;;18.92;7.75;;;;;;;5.27;100.00;101930.88;2091224;28;20392;-65
2021/11/08 05:30:14;;;;;;;22.30;7.60;;;;;;;5.28;100.00;101932.59;2091186;28;20041;-65
2021/11/08 05:31:14;;;;;;;19.50;8.07;;;;;;;5.28;100.00;101935.19;2091105;28;20394;-65
2021/11/08 05:32:14;;;;;;;23.97;7.70;;;;;;;5.27;100.00;101936.91;2091018;28;20021;-65
2021/11/08 05:33:16;;;;;;;22.60;7.25;;;;;;;5.27;100.00;101942.09;2091049;28;20036;-65
2021/11/08 05:34:17;;;;;;;22.55;8.15;;;;;;;5.28;100.00;101945.53;2091107;28;20514;-65
2021/11/08 05:35:20;;;;;;;18.33;7.35;;;;;;;5.27;100.00;101941.25;2091061;28;20041;-66
2021/11/08 05:36:20;;;;;;;20.58;7.25;;;;;;;5.28;100.00;101943.78;2091020;28;20052;-66